Historique des mesures à Cassis (13260), France
Quotidien Résumé Fevrier 2, 2017 Unités:  US    Métrique   Métrique/US
« Précédent (Jour)
Suivant (Jour) »
Quotidien Hebdomadaire Mensuel Annuel Période au choix
  Maximum: Minimum: Moyenne:
Température: 32 °F 54.3 °F 55.9 °F
Point de rosée: 32 °F 47.1 °F 48.7 °F
Humidité: Humidity % 71 % 73 %
Vitesse du vent: WindSpeedKMH mph 0.0 mph 4.3 mph
Rafales: WindSpeedGustKMH mph - -
Vent:- - SE
Pression: 0 in 29.8 in -
Précipitations: 12.7 in    
Historical Graphs
 
 
Mesures pour : Fevrier 2, 2017
Heure Temperature Point de rosée Pression Vent Vitesse du vent Rafales Humidité Pluie (par heure) Conditions
32 °F 32 °F 0 in Calm     Humidity % 0 in SoftwareType W/m2
01:11 55.2 °F 47.7 °F 30 in South 6.1 mph 7.2 mph 76 % 0 in open2300-1.11 W/m2
02:10 55 °F 47.7 °F 30 in Calm   5.0 mph 76 % 0 in open2300-1.11 W/m2
03:11 54.7 °F 47.1 °F 30 in SE 4.7 mph 4.7 mph 76 % 0 in open2300-1.11 W/m2
04:10 54.7 °F 47.1 °F 29.9 in NE 1.4 mph 1.4 mph 76 % 0 in open2300-1.11 W/m2
05:11 54.5 °F 47.5 °F 29.9 in SE 3.2 mph 3.2 mph 77 % 0 in open2300-1.11 W/m2
06:10 54.3 °F 47.1 °F 29.9 in SE 3.2 mph 4.7 mph 77 % 0 in open2300-1.11 W/m2
07:11 54.3 °F 47.1 °F 29.9 in SE 4.3 mph 13.7 mph 77 % 0 in open2300-1.11 W/m2
08:10 54.5 °F 47.5 °F 29.9 in ESE 8.7 mph 8.7 mph 77 % 0 in open2300-1.11 W/m2
09:11 55.2 °F 47.7 °F 29.9 in Calm   10.5 mph 76 % 0 in open2300-1.11 W/m2
10:10 56.3 °F 48.7 °F 29.9 in South 6.8 mph 6.8 mph 76 % 0 in open2300-1.11 W/m2
11:11 57.7 °F 49.5 °F 29.9 in ESE 3.2 mph 10.5 mph 74 % 0 in open2300-1.11 W/m2
12:10 59.5 °F 50.9 °F 29.9 in Calm   1.8 mph 73 % 0 in open2300-1.11 W/m2
13:11 60.6 °F 51.3 °F 29.9 in SSE 18.7 mph 18.7 mph 71 % 0 in open2300-1.11 W/m2
14:10 60.6 °F 51.3 °F 29.9 in ESE 5.8 mph 7.2 mph 71 % 0 in open2300-1.11 W/m2
15:11 60.1 °F 51.4 °F 29.9 in ESE 4.0 mph 6.4 mph 73 % 0 in open2300-1.11 W/m2
16:10 59.4 °F 52.2 °F 29.8 in SE 7.9 mph 7.9 mph 77 % 0 in open2300-1.11 W/m2
17:11 57.9 °F 50.4 °F 29.8 in Calm   8.2 mph 76 % 0 in open2300-1.11 W/m2
18:10 57.6 °F 50.4 °F 29.8 in SE 11.9 mph 11.9 mph 77 % 0 in open2300-1.11 W/m2
19:11 57 °F 50.2 °F 29.8 in ESE 1.4 mph 5.0 mph 78 % 0 in open2300-1.11 W/m2
20:10 57.4 °F 50.9 °F 29.8 in Calm   1.8 mph 79 % 0 in open2300-1.11 W/m2
21:11 57.6 °F 51.4 °F 29.9 in Calm   1.8 mph 80 % 0 in open2300-1.11 W/m2
22:10 57.2 °F 51.6 °F 29.8 in SSE 13.0 mph 13.0 mph 82 % 0 in open2300-1.11 W/m2
23:11 57.4 °F 52 °F 29.8 in Calm     82 % 12.7 in open2300-1.11 W/m2
Observations météo à CASSIS
WU-History script by Weather Underground - 1 mb